createdAt,value
2022-11-18T00:00:10.790Z,14.30
2022-11-18T00:01:32.411Z,13.35
2022-11-18T00:02:54.892Z,14.98
2022-11-18T00:04:24.361Z,14.15
2022-11-18T00:05:54.091Z,14.82
2022-11-18T00:07:16.810Z,14.00
2022-11-18T00:08:38.284Z,14.32
2022-11-18T00:10:00.466Z,15.15
2022-11-18T00:11:45.500Z,14.73
2022-11-18T00:13:30.692Z,14.07
2022-11-18T00:14:53.081Z,13.73
2022-11-18T00:16:14.246Z,15.05
2022-11-18T00:17:38.923Z,14.37
2022-11-18T00:19:00.622Z,13.85
2022-11-18T00:20:25.160Z,12.75
2022-11-18T00:21:46.438Z,13.18
2022-11-18T00:23:08.848Z,13.80
2022-11-18T00:24:31.274Z,13.75
2022-11-18T00:25:52.669Z,13.48
2022-11-18T00:27:16.541Z,13.90
2022-11-18T00:28:41.908Z,14.20
2022-11-18T00:30:03.986Z,13.07
2022-11-18T00:31:25.653Z,13.10
2022-11-18T00:32:48.685Z,14.32
2022-11-18T00:34:12.375Z,13.50
2022-11-18T00:35:34.469Z,14.13
2022-11-18T00:36:58.100Z,13.85
2022-11-18T00:38:20.234Z,13.75
2022-11-18T00:41:05.620Z,14.48
2022-11-18T00:42:46.967Z,13.85
2022-11-18T00:44:09.715Z,14.50
2022-11-18T00:45:31.120Z,15.15
2022-11-18T00:46:53.651Z,12.98
2022-11-18T00:48:15.154Z,15.40
2022-11-18T00:49:37.622Z,14.77
2022-11-18T00:51:07.466Z,16.15
2022-11-18T00:52:40.076Z,15.25
2022-11-18T00:54:01.229Z,15.50
2022-11-18T00:55:24.453Z,15.60
2022-11-18T00:56:45.955Z,15.30
2022-11-18T00:58:10.080Z,14.82
2022-11-18T00:59:32.174Z,15.85
2022-11-18T01:00:53.600Z,15.77
2022-11-18T01:02:16.249Z,16.05
2022-11-18T01:04:58.873Z,14.60
2022-11-18T01:06:20.114Z,14.90
2022-11-18T01:07:42.412Z,15.00
2022-11-18T01:09:05.170Z,14.30
2022-11-18T01:10:26.059Z,14.70
2022-11-18T01:12:05.699Z,16.45
2022-11-18T01:13:31.640Z,14.38
2022-11-18T01:14:52.693Z,14.07
2022-11-18T01:16:20.421Z,13.98
2022-11-18T01:17:45.283Z,14.05
2022-11-18T01:19:09.018Z,14.02
2022-11-18T01:20:33.745Z,15.60
2022-11-18T01:21:56.658Z,13.90
2022-11-18T01:23:20.437Z,14.98
2022-11-18T01:24:45.407Z,15.18
2022-11-18T01:26:08.565Z,14.40
2022-11-18T01:27:31.031Z,14.18
2022-11-18T01:28:56.063Z,14.32
2022-11-18T01:30:18.840Z,15.25
2022-11-18T01:31:55.514Z,14.15
2022-11-18T01:33:23.186Z,13.57
2022-11-18T01:34:48.168Z,14.80
2022-11-18T01:36:17.740Z,14.52
2022-11-18T01:37:40.049Z,14.30
2022-11-18T01:39:01.579Z,14.63
2022-11-18T01:40:23.509Z,14.90
2022-11-18T01:41:45.800Z,13.82
2022-11-18T01:43:16.566Z,15.30
2022-11-18T01:45:05.225Z,14.38
2022-11-18T01:46:29.581Z,13.93
2022-11-18T01:47:55.446Z,14.30
2022-11-18T01:49:17.132Z,14.88
2022-11-18T01:50:46.130Z,14.85
2022-11-18T01:52:08.309Z,14.82
2022-11-18T01:53:34.796Z,14.57
2022-11-18T01:55:03.238Z,15.27
2022-11-18T01:56:30.971Z,15.40
2022-11-18T01:58:01.482Z,14.73
2022-11-18T01:59:27.487Z,15.68
2022-11-18T02:00:50.425Z,16.42
2022-11-18T02:02:15.755Z,13.57
2022-11-18T02:03:38.993Z,15.38
2022-11-18T02:05:03.366Z,15.35
2022-11-18T02:06:25.984Z,16.05
2022-11-18T02:07:47.488Z,16.02
2022-11-18T02:09:09.956Z,15.93
2022-11-18T02:10:31.287Z,13.93
2022-11-18T02:11:54.625Z,15.07
2022-11-18T02:13:17.479Z,14.82
2022-11-18T02:14:41.308Z,15.68
2022-11-18T02:16:13.746Z,15.77
2022-11-18T02:17:46.115Z,16.30
2022-11-18T02:20:43.131Z,15.38
2022-11-18T02:22:19.495Z,16.25
2022-11-18T02:24:11.714Z,16.33
2022-11-18T02:25:43.948Z,15.32
2022-11-18T02:29:01.285Z,14.20
2022-11-18T02:30:25.022Z,16.60
2022-11-18T02:31:53.821Z,15.93
2022-11-18T02:33:23.571Z,15.68
2022-11-18T02:34:53.384Z,15.48
2022-11-18T02:36:29.876Z,16.05
2022-11-18T02:37:58.428Z,15.90
2022-11-18T02:39:26.276Z,16.25
2022-11-18T02:40:52.715Z,14.95
2022-11-18T02:42:17.779Z,16.38
2022-11-18T02:43:44.761Z,16.98
2022-11-18T02:45:13.642Z,16.25
2022-11-18T02:46:39.351Z,16.90
2022-11-18T02:48:08.521Z,16.83
2022-11-18T02:49:36.720Z,16.48
2022-11-18T02:51:01.385Z,16.77
2022-11-18T02:52:24.999Z,16.20
2022-11-18T02:53:49.632Z,16.33
2022-11-18T02:55:15.205Z,16.30
2022-11-18T02:56:38.086Z,17.13
2022-11-18T02:58:02.100Z,17.33
2022-11-18T02:59:23.231Z,16.15
2022-11-18T03:00:46.872Z,18.23
2022-11-18T03:02:10.632Z,15.73
2022-11-18T03:03:34.654Z,18.00
2022-11-18T03:04:58.097Z,17.75
2022-11-18T03:06:28.969Z,17.05
2022-11-18T03:07:56.869Z,17.90
2022-11-18T03:09:26.240Z,17.02
2022-11-18T03:10:53.262Z,18.00
2022-11-18T03:12:24.579Z,18.02
2022-11-18T03:14:05.978Z,17.98
2022-11-18T03:15:38.952Z,17.27
2022-11-18T03:17:04.320Z,16.92
2022-11-18T03:18:30.653Z,17.85
2022-11-18T03:20:12.325Z,16.58
2022-11-18T03:21:37.886Z,15.85
2022-11-18T03:23:08.176Z,16.65
2022-11-18T03:24:32.805Z,16.27
2022-11-18T03:25:59.246Z,15.18
2022-11-18T03:27:26.985Z,17.30
2022-11-18T03:28:57.740Z,16.75
2022-11-18T03:30:23.553Z,15.77
2022-11-18T03:31:49.618Z,16.35
2022-11-18T03:33:19.708Z,15.93
2022-11-18T03:34:45.084Z,15.20
2022-11-18T03:36:12.038Z,16.73
2022-11-18T03:37:35.599Z,16.45
2022-11-18T03:39:02.833Z,16.63
2022-11-18T03:40:27.387Z,15.00
2022-11-18T03:41:54.887Z,15.98
2022-11-18T03:43:19.793Z,17.60
2022-11-18T03:44:52.199Z,16.63
2022-11-18T03:46:18.384Z,16.42
2022-11-18T03:47:45.869Z,16.02
2022-11-18T03:49:17.376Z,16.17
2022-11-18T03:50:44.814Z,17.20
2022-11-18T03:52:12.822Z,16.58
2022-11-18T03:53:36.782Z,16.98
2022-11-18T03:55:03.913Z,17.73
2022-11-18T03:56:31.565Z,17.73
2022-11-18T03:57:59.015Z,17.38
2022-11-18T03:59:25.538Z,16.67
2022-11-18T04:00:51.145Z,18.10
2022-11-18T04:02:17.036Z,18.92
2022-11-18T04:03:38.479Z,19.23
2022-11-18T04:05:04.233Z,18.17
2022-11-18T04:06:33.817Z,19.15
2022-11-18T04:07:58.096Z,19.50
2022-11-18T04:09:24.366Z,19.80
2022-11-18T04:10:52.230Z,19.55
2022-11-18T04:12:16.566Z,20.77
2022-11-18T04:13:39.097Z,20.35
2022-11-18T04:15:00.365Z,19.70
2022-11-18T04:16:22.508Z,19.05
2022-11-18T04:17:44.906Z,20.95
2022-11-18T04:19:06.452Z,20.42
2022-11-18T04:21:53.685Z,20.10
2022-11-18T04:23:16.086Z,20.60
2022-11-18T04:24:37.501Z,19.90
2022-11-18T04:25:59.692Z,21.60
2022-11-18T04:27:20.622Z,22.10
2022-11-18T04:28:42.849Z,20.48
2022-11-18T04:31:25.518Z,19.98
2022-11-18T04:32:47.490Z,19.00
2022-11-18T04:34:08.728Z,22.95
2022-11-18T04:35:32.380Z,21.33
2022-11-18T04:36:53.752Z,21.77
2022-11-18T04:38:21.633Z,22.75
2022-11-18T04:39:43.346Z,21.65
2022-11-18T04:41:06.117Z,20.80
2022-11-18T04:42:27.118Z,22.17
2022-11-18T04:43:49.180Z,20.67
2022-11-18T04:45:12.725Z,20.60
2022-11-18T04:46:33.653Z,21.73
2022-11-18T04:48:01.959Z,22.52
2022-11-18T04:49:25.655Z,22.98
2022-11-18T04:50:49.160Z,20.65
2022-11-18T04:52:11.720Z,21.92
2022-11-18T04:53:33.943Z,23.48
2022-11-18T04:54:55.961Z,22.15
2022-11-18T04:56:17.151Z,21.92
2022-11-18T04:57:39.494Z,23.08
2022-11-18T04:59:06.927Z,22.70
2022-11-18T05:00:29.233Z,24.80
2022-11-18T05:01:50.718Z,24.30
2022-11-18T05:03:17.730Z,24.73
2022-11-18T05:04:42.050Z,23.65
2022-11-18T05:06:07.155Z,23.17
2022-11-18T05:07:29.765Z,23.90
2022-11-18T05:08:50.694Z,24.33
2022-11-18T05:10:12.798Z,24.83
2022-11-18T05:13:13.592Z,21.80
2022-11-18T05:14:37.785Z,24.38
2022-11-18T05:16:05.176Z,23.73
2022-11-18T05:17:27.356Z,25.42
2022-11-18T05:18:48.452Z,26.17
2022-11-18T05:20:11.333Z,23.45
2022-11-18T05:21:34.169Z,25.55
2022-11-18T05:22:56.510Z,24.70
2022-11-18T05:24:18.059Z,22.52
2022-11-18T05:25:40.073Z,24.58
2022-11-18T05:27:01.344Z,26.38
2022-11-18T05:28:23.874Z,24.73
2022-11-18T05:29:46.219Z,24.95
2022-11-18T05:31:08.635Z,24.73
2022-11-18T05:32:31.003Z,24.77
2022-11-18T05:33:52.388Z,24.13
2022-11-18T05:35:14.924Z,23.30
2022-11-18T05:36:37.488Z,23.27
2022-11-18T05:38:00.137Z,25.20
2022-11-18T05:39:22.451Z,25.00
2022-11-18T05:42:26.950Z,22.15
2022-11-18T05:43:49.319Z,21.60
2022-11-18T05:46:33.729Z,22.27
2022-11-18T05:48:01.681Z,21.98
2022-11-18T05:49:23.578Z,23.38
2022-11-18T05:50:48.660Z,22.92
2022-11-18T05:52:12.441Z,23.20
2022-11-18T05:53:34.473Z,23.60
2022-11-18T05:54:57.479Z,22.85
2022-11-18T05:56:22.869Z,21.77
2022-11-18T05:57:44.971Z,22.98
2022-11-18T05:59:07.809Z,20.80
2022-11-18T06:00:31.164Z,24.15
2022-11-18T06:01:57.840Z,23.17
2022-11-18T06:03:29.108Z,21.00
2022-11-18T06:04:57.674Z,22.80
2022-11-18T06:06:23.097Z,21.92
2022-11-18T06:07:47.471Z,21.40
2022-11-18T06:09:11.740Z,23.20
2022-11-18T06:10:38.962Z,21.50
2022-11-18T06:12:03.779Z,24.38
2022-11-18T06:13:36.306Z,20.35
2022-11-18T06:15:01.045Z,22.25
2022-11-18T06:16:28.186Z,21.00
2022-11-18T06:17:54.719Z,22.17
2022-11-18T06:19:17.722Z,24.17
2022-11-18T06:20:42.597Z,23.90
2022-11-18T06:22:05.444Z,22.25
2022-11-18T06:23:30.379Z,23.05
2022-11-18T06:24:53.017Z,22.10
2022-11-18T06:26:17.074Z,24.75
2022-11-18T06:27:39.162Z,23.80
2022-11-18T06:29:01.529Z,22.50
2022-11-18T06:31:44.610Z,22.92
2022-11-18T06:33:06.519Z,22.95
2022-11-18T06:34:30.550Z,22.80
2022-11-18T06:35:52.843Z,23.00
2022-11-18T06:37:16.145Z,23.55
2022-11-18T06:38:39.564Z,25.65
2022-11-18T06:40:01.810Z,24.30
2022-11-18T06:43:02.454Z,22.77
2022-11-18T06:44:24.737Z,23.83
2022-11-18T06:46:09.069Z,24.27
2022-11-18T06:47:31.476Z,23.67
2022-11-18T06:48:52.801Z,24.50
2022-11-18T06:50:15.073Z,25.33
2022-11-18T06:51:39.609Z,23.75
2022-11-18T06:53:02.698Z,25.98
2022-11-18T06:54:26.411Z,25.00
2022-11-18T06:55:47.582Z,24.95
2022-11-18T06:57:09.647Z,26.40
2022-11-18T06:58:31.972Z,24.42
2022-11-18T06:59:59.066Z,24.67
2022-11-18T07:01:25.494Z,26.75
2022-11-18T07:02:47.876Z,23.98
2022-11-18T07:04:10.243Z,27.73
2022-11-18T07:05:31.765Z,25.88
2022-11-18T07:06:54.392Z,28.38
2022-11-18T07:08:16.638Z,27.58
2022-11-18T07:09:40.490Z,28.80
2022-11-18T07:11:01.852Z,28.80
2022-11-18T07:12:24.086Z,27.98
2022-11-18T07:13:46.877Z,28.05
2022-11-18T07:15:12.691Z,28.60
2022-11-18T07:16:40.635Z,28.13
2022-11-18T07:18:01.788Z,29.55
2022-11-18T07:19:24.123Z,30.40
2022-11-18T07:20:45.364Z,28.77
2022-11-18T07:22:08.248Z,28.27
2022-11-18T07:23:29.150Z,29.50
2022-11-18T07:24:53.530Z,30.35
2022-11-18T07:26:16.419Z,27.88
2022-11-18T07:27:37.849Z,28.33
2022-11-18T07:29:00.163Z,27.33
2022-11-18T07:31:44.415Z,30.40
2022-11-18T07:33:05.769Z,28.00
2022-11-18T07:34:31.163Z,28.15
2022-11-18T07:35:52.180Z,27.40
2022-11-18T07:37:14.552Z,29.75
2022-11-18T07:38:37.317Z,27.33
2022-11-18T07:40:01.245Z,28.30
2022-11-18T07:41:25.544Z,29.02
2022-11-18T07:42:47.624Z,26.92
2022-11-18T07:44:18.976Z,27.57
2022-11-18T07:45:44.299Z,28.95
2022-11-18T07:47:06.563Z,26.75
2022-11-18T07:48:28.634Z,26.38
2022-11-18T07:49:50.752Z,26.83
2022-11-18T07:51:13.616Z,26.05
2022-11-18T07:52:34.918Z,27.35
2022-11-18T07:53:59.865Z,27.53
2022-11-18T07:55:26.877Z,24.38
2022-11-18T07:56:54.991Z,26.02
2022-11-18T07:58:16.102Z,22.25
2022-11-18T07:59:38.191Z,23.52
2022-11-18T08:01:00.673Z,25.40
2022-11-18T08:02:22.641Z,25.25
2022-11-18T08:03:45.482Z,26.08
2022-11-18T08:05:12.152Z,25.42
2022-11-18T08:06:39.524Z,25.25
2022-11-18T08:08:01.661Z,26.60
2022-11-18T08:09:22.455Z,26.58
2022-11-18T08:10:46.204Z,27.45
2022-11-18T08:12:08.574Z,26.08
2022-11-18T08:13:31.222Z,23.85
2022-11-18T08:14:53.084Z,28.40
2022-11-18T08:16:20.051Z,27.60
2022-11-18T08:17:42.850Z,26.27
2022-11-18T08:19:08.547Z,27.48
2022-11-18T08:20:30.720Z,26.83
2022-11-18T08:21:52.628Z,27.80
2022-11-18T08:23:18.715Z,27.25
2022-11-18T08:24:40.951Z,25.20
2022-11-18T08:26:07.196Z,24.55
2022-11-18T08:27:29.744Z,29.33
2022-11-18T08:28:52.351Z,26.92
2022-11-18T08:30:15.376Z,24.80
2022-11-18T08:31:37.438Z,27.77
2022-11-18T08:32:59.884Z,26.73
2022-11-18T08:35:43.769Z,30.15
2022-11-18T08:37:05.977Z,29.17
2022-11-18T08:38:28.670Z,26.10
2022-11-18T08:39:51.591Z,28.67
2022-11-18T08:41:17.314Z,29.33
2022-11-18T08:42:39.500Z,28.33
2022-11-18T08:44:02.237Z,28.17
2022-11-18T08:45:24.351Z,26.35
2022-11-18T08:46:47.041Z,28.15
2022-11-18T08:48:11.372Z,29.55
2022-11-18T08:49:33.637Z,29.48
2022-11-18T08:50:56.368Z,29.55
2022-11-18T08:52:20.558Z,29.42
2022-11-18T08:54:09.596Z,27.20
2022-11-18T08:55:32.339Z,28.27
2022-11-18T08:56:56.117Z,29.33
2022-11-18T08:58:18.390Z,28.13
2022-11-18T08:59:40.666Z,29.48
2022-11-18T09:02:29.983Z,28.75
2022-11-18T09:03:52.738Z,28.73
2022-11-18T09:05:15.203Z,28.88
2022-11-18T09:06:38.637Z,29.90
2022-11-18T09:08:01.299Z,30.42
2022-11-18T09:09:24.427Z,30.58
2022-11-18T09:10:46.746Z,30.02
2022-11-18T09:12:14.595Z,27.90
2022-11-18T09:14:14.430Z,29.42
2022-11-18T09:15:19.775Z,30.10
2022-11-18T09:16:42.567Z,29.65
2022-11-18T09:18:05.430Z,30.38
2022-11-18T09:21:11.629Z,29.50
2022-11-18T09:22:34.125Z,29.17
2022-11-18T09:23:56.243Z,30.80
2022-11-18T09:25:18.481Z,31.40
2022-11-18T09:26:41.362Z,31.92
2022-11-18T09:28:05.130Z,25.55
2022-11-18T09:29:27.470Z,27.83
2022-11-18T09:30:49.981Z,30.65
2022-11-18T09:32:12.276Z,30.55
2022-11-18T09:33:34.699Z,31.80
2022-11-18T09:36:21.455Z,29.05
2022-11-18T09:37:43.491Z,29.67
2022-11-18T09:39:09.084Z,29.98
2022-11-18T09:40:31.238Z,30.48
2022-11-18T09:43:30.042Z,30.48
2022-11-18T09:45:15.354Z,31.23
2022-11-18T09:46:52.752Z,29.38
2022-11-18T09:48:19.678Z,29.17
2022-11-18T09:49:47.771Z,31.08
2022-11-18T09:51:14.111Z,30.25
2022-11-18T09:52:41.943Z,30.05
2022-11-18T09:54:02.987Z,29.33
2022-11-18T09:55:25.411Z,29.23
2022-11-18T09:56:48.543Z,28.10
2022-11-18T09:58:18.374Z,29.00
2022-11-18T09:59:42.352Z,30.33
2022-11-18T10:01:05.670Z,27.25
2022-11-18T10:02:50.423Z,28.42
2022-11-18T10:04:25.504Z,28.55
2022-11-18T10:05:59.492Z,27.55
2022-11-18T10:07:30.240Z,25.15
2022-11-18T10:09:05.667Z,25.42
2022-11-18T10:10:35.282Z,26.45
2022-11-18T10:12:16.215Z,26.20
2022-11-18T10:13:56.898Z,27.27
2022-11-18T10:15:26.752Z,25.02
2022-11-18T10:16:58.140Z,25.20
2022-11-18T10:18:58.358Z,25.27
2022-11-18T10:20:26.542Z,25.33
2022-11-18T10:22:02.232Z,26.02
2022-11-18T10:23:33.712Z,24.90
2022-11-18T10:24:57.719Z,25.23
2022-11-18T10:26:36.498Z,25.33
2022-11-18T10:28:15.170Z,25.45
2022-11-18T10:29:37.541Z,24.73
2022-11-18T10:31:08.586Z,24.25
2022-11-18T10:32:30.748Z,21.58
2022-11-18T10:34:00.752Z,25.27
2022-11-18T10:35:27.684Z,23.95
2022-11-18T10:37:01.369Z,24.90
2022-11-18T10:38:23.700Z,24.92
2022-11-18T10:39:55.326Z,25.30
2022-11-18T10:41:20.122Z,24.85
2022-11-18T10:42:46.059Z,27.58
2022-11-18T10:44:37.782Z,26.30
2022-11-18T10:46:25.262Z,25.80
2022-11-18T10:47:59.281Z,25.23
2022-11-18T10:49:21.653Z,25.70
2022-11-18T10:50:49.224Z,25.20
2022-11-18T10:52:16.428Z,24.60
2022-11-18T10:53:39.247Z,27.08
2022-11-18T10:55:23.205Z,27.70
2022-11-18T10:56:57.778Z,25.67
2022-11-18T10:58:20.941Z,25.67
2022-11-18T10:59:51.408Z,23.67
2022-11-18T11:01:24.463Z,25.17
2022-11-18T11:02:49.816Z,24.63
2022-11-18T11:04:21.301Z,24.27
2022-11-18T11:05:44.140Z,25.42
2022-11-18T11:07:17.868Z,25.88
2022-11-18T11:08:49.620Z,24.75
2022-11-18T11:10:24.696Z,26.10
2022-11-18T11:11:59.566Z,24.98
2022-11-18T11:13:21.130Z,23.23
2022-11-18T11:14:52.485Z,24.35
2022-11-18T11:16:23.427Z,25.45
2022-11-18T11:18:09.082Z,26.02
2022-11-18T11:19:41.959Z,25.60
2022-11-18T11:21:04.228Z,26.80
2022-11-18T11:22:26.774Z,24.77
2022-11-18T11:23:47.812Z,24.63
2022-11-18T11:25:15.137Z,26.27
2022-11-18T11:28:32.913Z,26.27
2022-11-18T11:30:09.881Z,26.80
2022-11-18T11:31:40.972Z,24.70
2022-11-18T11:33:20.916Z,26.10
2022-11-18T11:34:51.424Z,26.92
2022-11-18T11:36:27.105Z,25.25
2022-11-18T11:37:55.300Z,26.38
2022-11-18T11:39:38.945Z,26.60
2022-11-18T11:41:10.659Z,24.83
2022-11-18T11:42:50.418Z,24.65
2022-11-18T11:44:38.182Z,26.15
2022-11-18T11:46:20.104Z,26.35
2022-11-18T11:48:00.377Z,27.38
2022-11-18T11:49:31.388Z,27.35
2022-11-18T11:51:05.379Z,27.63
2022-11-18T11:52:50.848Z,28.60
2022-11-18T11:54:33.198Z,27.25
2022-11-18T11:56:06.103Z,27.98
2022-11-18T11:57:43.941Z,29.50
2022-11-18T11:59:16.163Z,25.63
2022-11-18T12:02:36.332Z,27.52
2022-11-18T12:04:09.623Z,26.50
2022-11-18T12:05:45.547Z,27.67
2022-11-18T12:07:24.062Z,25.35
2022-11-18T12:09:00.886Z,27.75
2022-11-18T12:10:34.160Z,26.88
2022-11-18T12:12:02.443Z,28.13
2022-11-18T12:13:43.231Z,28.25
2022-11-18T12:15:23.636Z,27.40
2022-11-18T12:16:55.027Z,25.50
2022-11-18T12:18:24.398Z,29.50
2022-11-18T12:19:46.673Z,28.95
2022-11-18T12:21:55.056Z,27.52
2022-11-18T12:23:20.237Z,28.92
2022-11-18T12:24:46.779Z,29.38
2022-11-18T12:26:11.567Z,29.48
2022-11-18T12:28:00.542Z,27.95
2022-11-18T12:29:27.775Z,28.25
2022-11-18T12:30:50.198Z,28.35
2022-11-18T12:32:31.372Z,29.88
2022-11-18T12:33:57.590Z,29.90
2022-11-18T12:35:30.021Z,29.17
2022-11-18T12:36:58.186Z,27.35
2022-11-18T12:38:32.182Z,27.73
2022-11-18T12:40:03.600Z,28.92
2022-11-18T12:42:11.460Z,28.97
2022-11-18T12:44:07.413Z,27.65
2022-11-18T12:45:58.302Z,28.35
2022-11-18T12:47:59.340Z,26.58
2022-11-18T12:50:13.596Z,27.35
2022-11-18T12:51:42.938Z,27.13
2022-11-18T12:53:12.350Z,26.52
2022-11-18T12:54:38.346Z,27.13
2022-11-18T12:56:00.306Z,27.73
2022-11-18T12:57:24.232Z,28.38
2022-11-18T12:58:47.431Z,28.45
2022-11-18T13:00:30.207Z,24.27
2022-11-18T13:02:04.080Z,25.30
2022-11-18T13:03:30.934Z,30.27
2022-11-18T13:05:10.444Z,29.75
2022-11-18T13:06:34.679Z,26.63
2022-11-18T13:08:14.346Z,26.48
2022-11-18T13:09:38.410Z,28.02
2022-11-18T13:11:29.281Z,29.42
2022-11-18T13:12:52.602Z,23.98
2022-11-18T13:14:36.365Z,25.00
2022-11-18T13:16:20.916Z,26.20
2022-11-18T13:17:54.912Z,25.60
2022-11-18T13:19:23.636Z,25.10
2022-11-18T13:20:56.522Z,24.08
2022-11-18T13:22:36.940Z,23.15
2022-11-18T13:24:01.363Z,22.90
2022-11-18T13:25:26.351Z,22.45
2022-11-18T13:26:54.552Z,22.20
2022-11-18T13:28:27.141Z,19.10
2022-11-18T13:29:54.655Z,19.27
2022-11-18T13:31:26.150Z,18.23
2022-11-18T13:32:49.853Z,18.20
2022-11-18T13:34:22.218Z,18.33
2022-11-18T13:35:46.429Z,16.73
2022-11-18T13:37:20.026Z,16.48
2022-11-18T13:38:56.584Z,14.68
2022-11-18T13:40:21.644Z,15.32
2022-11-18T13:41:46.950Z,15.05
2022-11-18T13:43:12.425Z,15.63
2022-11-18T13:44:37.369Z,13.98
2022-11-18T13:46:01.670Z,13.93
2022-11-18T13:47:37.313Z,14.05
2022-11-18T13:49:00.807Z,14.38
2022-11-18T13:50:28.660Z,16.27
2022-11-18T13:51:51.934Z,13.73
2022-11-18T13:53:30.657Z,13.98
2022-11-18T13:54:55.229Z,12.90
2022-11-18T13:56:21.573Z,13.50
2022-11-18T13:57:48.490Z,11.80
2022-11-18T13:59:18.578Z,11.45
2022-11-18T14:00:41.081Z,11.93
2022-11-18T14:02:02.678Z,12.23
2022-11-18T14:03:30.080Z,11.60
2022-11-18T14:04:56.465Z,11.90
2022-11-18T14:06:26.829Z,11.05
2022-11-18T14:08:05.468Z,11.25
2022-11-18T14:09:29.387Z,12.13
2022-11-18T14:10:51.516Z,9.93
2022-11-18T14:12:25.216Z,10.55
2022-11-18T14:13:55.173Z,10.85
2022-11-18T14:15:23.319Z,11.32
2022-11-18T14:16:45.463Z,11.02
2022-11-18T14:18:21.264Z,10.77
2022-11-18T14:19:43.731Z,9.93
2022-11-18T14:21:07.067Z,10.10
2022-11-18T14:22:31.040Z,10.35
2022-11-18T14:23:53.221Z,11.13
2022-11-18T14:25:25.925Z,11.50
2022-11-18T14:26:52.737Z,10.30
2022-11-18T14:28:31.372Z,10.15
2022-11-18T14:29:57.236Z,10.38
2022-11-18T14:31:33.484Z,10.50
2022-11-18T14:33:20.929Z,10.23
2022-11-18T14:34:43.856Z,10.70
2022-11-18T14:36:17.938Z,11.15
2022-11-18T14:37:43.860Z,10.43
2022-11-18T14:41:13.932Z,10.70
2022-11-18T14:43:02.578Z,11.18
2022-11-18T14:44:27.124Z,16.23
2022-11-18T14:46:04.144Z,9.52
2022-11-18T14:47:30.500Z,12.00
2022-11-18T14:49:05.993Z,11.05
2022-11-18T14:50:28.678Z,11.40
2022-11-18T14:51:59.156Z,9.88
2022-11-18T14:53:28.014Z,10.40
2022-11-18T14:54:50.489Z,11.95
2022-11-18T14:56:19.423Z,11.45
2022-11-18T14:57:46.033Z,11.00
2022-11-18T15:01:18.833Z,11.63
2022-11-18T15:02:49.339Z,11.70
2022-11-18T15:05:14.666Z,10.48
2022-11-18T15:06:53.810Z,10.85
2022-11-18T15:13:58.795Z,13.98
2022-11-18T15:15:40.817Z,14.32
2022-11-18T15:17:58.746Z,14.25
2022-11-18T15:19:46.810Z,16.30
2022-11-18T15:21:45.658Z,12.43
2022-11-18T15:23:11.402Z,14.00
2022-11-18T15:25:06.943Z,12.77
2022-11-18T15:26:42.175Z,14.05
2022-11-18T15:28:11.860Z,12.77
2022-11-18T15:29:34.891Z,13.10
2022-11-18T15:30:58.284Z,13.57
2022-11-18T15:32:34.408Z,12.68
2022-11-18T15:34:24.553Z,14.15
2022-11-18T15:36:03.289Z,13.63
2022-11-18T15:37:29.202Z,13.70
2022-11-18T15:39:01.636Z,13.05
2022-11-18T15:41:55.914Z,15.20
2022-11-18T15:43:19.360Z,14.02
2022-11-18T15:44:41.779Z,12.98
2022-11-18T15:46:09.754Z,14.35
2022-11-18T15:47:36.495Z,15.35
2022-11-18T15:49:04.476Z,14.00
2022-11-18T15:50:27.216Z,14.50
2022-11-18T15:51:50.028Z,18.52
2022-11-18T15:53:14.002Z,13.30
2022-11-18T15:54:37.434Z,15.15
2022-11-18T16:08:05.812Z,16.65
2022-11-18T16:10:03.694Z,14.00
2022-11-18T16:11:50.956Z,14.20
2022-11-18T16:13:18.180Z,15.50
2022-11-18T16:14:40.559Z,17.67
2022-11-18T16:16:04.599Z,17.77
2022-11-18T16:17:26.919Z,18.67
2022-11-18T16:18:49.707Z,23.60
2022-11-18T16:20:15.235Z,23.52
2022-11-18T16:21:58.727Z,28.50
2022-11-18T16:23:22.852Z,23.48
2022-11-18T16:24:48.625Z,17.60
2022-11-18T16:26:17.075Z,18.50
2022-11-18T16:27:40.229Z,17.08
2022-11-18T16:29:09.391Z,15.32
2022-11-18T16:30:53.498Z,22.60
2022-11-18T16:32:15.846Z,21.70
2022-11-18T16:33:37.307Z,30.65
2022-11-18T16:35:02.832Z,15.35
2022-11-18T16:36:30.051Z,18.20
2022-11-18T16:37:56.710Z,19.02
2022-11-18T16:39:23.717Z,18.63
2022-11-18T16:40:54.788Z,16.17
2022-11-18T16:42:20.749Z,15.10
2022-11-18T16:44:06.693Z,17.15
2022-11-18T16:45:32.788Z,19.75
2022-11-18T16:46:59.627Z,24.85
2022-11-18T16:48:24.389Z,20.98
2022-11-18T16:49:50.812Z,19.13
2022-11-18T16:51:25.483Z,20.80
2022-11-18T16:52:48.589Z,16.90
2022-11-18T16:54:44.670Z,16.02
2022-11-18T16:56:44.652Z,14.88
2022-11-18T16:58:25.019Z,15.77
2022-11-18T16:59:47.515Z,18.70
2022-11-18T17:01:24.633Z,18.95
2022-11-18T17:02:50.989Z,15.90
2022-11-18T17:04:24.311Z,14.82
2022-11-18T17:06:07.633Z,16.23
2022-11-18T17:07:38.276Z,16.92
2022-11-18T17:09:21.587Z,18.17
2022-11-18T17:10:48.751Z,21.23
2022-11-18T17:12:11.003Z,28.73
2022-11-18T17:13:33.295Z,39.90
2022-11-18T17:14:59.223Z,32.70
2022-11-18T17:16:25.661Z,32.47
2022-11-18T17:17:47.733Z,24.23
2022-11-18T17:19:16.052Z,19.45
2022-11-18T17:20:38.599Z,21.33
2022-11-18T17:22:16.640Z,19.77
2022-11-18T17:24:00.955Z,19.88
2022-11-18T17:25:23.289Z,18.35
2022-11-18T17:26:47.690Z,17.02
2022-11-18T17:28:10.177Z,16.70
2022-11-18T17:29:33.095Z,15.65
2022-11-18T17:30:56.838Z,16.35
2022-11-18T17:32:19.339Z,16.50
2022-11-18T17:33:40.609Z,18.23
2022-11-18T17:35:05.089Z,15.52
2022-11-18T17:36:28.855Z,15.93
2022-11-18T17:37:51.075Z,17.23
2022-11-18T17:39:18.313Z,16.58
2022-11-18T17:40:39.769Z,15.07
2022-11-18T17:42:17.756Z,15.65
2022-11-18T17:43:39.889Z,16.17
2022-11-18T17:45:03.380Z,15.90
2022-11-18T17:46:30.958Z,16.77
2022-11-18T17:47:56.982Z,16.38
2022-11-18T17:49:24.652Z,16.60
2022-11-18T17:50:47.545Z,16.58
2022-11-18T17:52:17.143Z,14.27
2022-11-18T17:53:43.268Z,15.63
2022-11-18T17:55:07.068Z,15.93
2022-11-18T17:56:32.828Z,15.50
2022-11-18T17:57:57.522Z,15.82
2022-11-18T17:59:19.038Z,16.58
2022-11-18T18:00:41.990Z,17.02
2022-11-18T18:02:04.539Z,15.57
2022-11-18T18:03:29.856Z,16.95
2022-11-18T18:06:25.031Z,16.60
2022-11-18T18:07:48.675Z,18.27
2022-11-18T18:09:30.493Z,18.63
2022-11-18T18:11:13.215Z,18.52
2022-11-18T18:12:59.190Z,17.65
2022-11-18T18:14:25.240Z,18.60
2022-11-18T18:15:52.999Z,20.35
2022-11-18T18:17:34.750Z,19.75
2022-11-18T18:18:57.784Z,21.03
2022-11-18T18:20:20.273Z,21.48
2022-11-18T18:21:48.259Z,22.25
2022-11-18T18:23:10.849Z,19.40
2022-11-18T18:24:35.970Z,20.30
2022-11-18T18:25:57.137Z,20.42
2022-11-18T18:27:21.013Z,21.55
2022-11-18T18:28:42.148Z,21.67
2022-11-18T18:30:12.590Z,20.73
2022-11-18T18:31:36.156Z,22.25
2022-11-18T18:32:58.183Z,21.15
2022-11-18T18:34:20.751Z,20.08
2022-11-18T18:35:43.868Z,19.63
2022-11-18T18:37:24.229Z,19.58
2022-11-18T18:39:01.620Z,22.77
2022-11-18T18:40:24.539Z,20.30
2022-11-18T18:41:47.158Z,20.08
2022-11-18T18:43:08.116Z,19.98
2022-11-18T18:44:53.132Z,22.60
2022-11-18T18:46:37.112Z,18.95
2022-11-18T18:48:23.704Z,21.25
2022-11-18T18:50:26.628Z,22.55
2022-11-18T18:52:01.923Z,21.92
2022-11-18T18:53:37.711Z,18.67
2022-11-18T18:55:10.952Z,20.75
2022-11-18T18:56:44.214Z,18.88
2022-11-18T18:58:11.869Z,21.85
2022-11-18T18:59:48.181Z,20.67
2022-11-18T19:01:51.927Z,22.63
2022-11-18T19:03:17.008Z,19.05
2022-11-18T19:04:42.223Z,19.40
2022-11-18T19:06:48.756Z,19.23
2022-11-18T19:08:09.114Z,20.73
2022-11-18T19:09:37.853Z,19.83
2022-11-18T19:11:09.182Z,20.13
2022-11-18T19:12:55.232Z,21.33
2022-11-18T19:14:51.101Z,20.23
2022-11-18T19:16:31.722Z,32.10
2022-11-18T19:18:06.498Z,20.73
2022-11-18T19:19:50.628Z,21.75
2022-11-18T19:21:51.664Z,20.70
2022-11-18T19:23:39.680Z,19.77
2022-11-18T19:25:02.661Z,19.00
2022-11-18T19:26:28.328Z,19.42
2022-11-18T19:27:53.611Z,19.13
2022-11-18T19:29:16.320Z,19.50
2022-11-18T19:30:43.540Z,20.55
2022-11-18T19:32:07.585Z,19.38
2022-11-18T19:33:31.817Z,19.52
2022-11-18T19:35:21.524Z,21.27
2022-11-18T19:37:30.056Z,18.83
2022-11-18T19:39:56.885Z,19.88
2022-11-18T19:41:44.012Z,20.02
2022-11-18T19:43:53.961Z,20.88
2022-11-18T19:45:31.981Z,18.85
2022-11-18T19:47:13.301Z,18.90
2022-11-18T19:48:42.843Z,20.27
2022-11-18T19:50:30.920Z,20.27
2022-11-18T19:51:55.244Z,19.35